sensor_id;sensor_type;location;lat;lon;timestamp;pressure;altitude;pressure_sealevel;temperature;humidity
8627;BME280;4351;51.422;6.794;2023-02-01T00:01:45;99779.38;;;5.98;100.00
8627;BME280;4351;51.422;6.794;2023-02-01T00:04:17;99791.72;;;6.01;100.00
8627;BME280;4351;51.422;6.794;2023-02-01T00:06:49;99798.72;;;6.03;100.00
8627;BME280;4351;51.422;6.794;2023-02-01T00:09:20;99798.72;;;6.03;100.00
8627;BME280;4351;51.422;6.794;2023-02-01T00:11:53;99803.13;;;6.04;100.00
8627;BME280;4351;51.422;6.794;2023-02-01T00:14:31;99805.69;;;6.06;100.00
8627;BME280;4351;51.422;6.794;2023-02-01T00:17:20;99803.66;;;6.11;100.00
8627;BME280;4351;51.422;6.794;2023-02-01T00:19:57;99811.16;;;6.04;100.00
8627;BME280;4351;51.422;6.794;2023-02-01T00:22:41;99813.16;;;6.01;100.00
8627;BME280;4351;51.422;6.794;2023-02-01T00:25:26;99801.47;;;6.02;100.00
8627;BME280;4351;51.422;6.794;2023-02-01T00:28:01;99805.31;;;6.14;100.00
8627;BME280;4351;51.422;6.794;2023-02-01T00:30:31;99814.00;;;6.01;100.00
8627;BME280;4351;51.422;6.794;2023-02-01T00:33:00;99790.69;;;6.19;100.00
8627;BME280;4351;51.422;6.794;2023-02-01T00:35:40;99811.50;;;5.98;100.00
8627;BME280;4351;51.422;6.794;2023-02-01T00:38:18;99794.72;;;6.43;100.00
8627;BME280;4351;51.422;6.794;2023-02-01T00:40:48;99820.16;;;6.19;100.00
8627;BME280;4351;51.422;6.794;2023-02-01T00:43:24;99810.22;;;6.05;100.00
8627;BME280;4351;51.422;6.794;2023-02-01T00:45:53;99789.91;;;6.34;100.00
8627;BME280;4351;51.422;6.794;2023-02-01T00:48:21;99795.91;;;6.23;100.00
8627;BME280;4351;51.422;6.794;2023-02-01T00:50:52;99814.09;;;6.00;100.00
8627;BME280;4351;51.422;6.794;2023-02-01T00:53:21;99814.22;;;6.14;100.00
8627;BME280;4351;51.422;6.794;2023-02-01T00:55:53;99812.63;;;6.10;100.00
8627;BME280;4351;51.422;6.794;2023-02-01T00:58:29;99805.22;;;6.31;100.00
8627;BME280;4351;51.422;6.794;2023-02-01T01:01:10;99821.63;;;6.09;100.00
8627;BME280;4351;51.422;6.794;2023-02-01T01:03:49;99819.06;;;6.07;100.00
8627;BME280;4351;51.422;6.794;2023-02-01T01:06:31;99815.72;;;6.35;100.00
8627;BME280;4351;51.422;6.794;2023-02-01T01:09:06;99824.06;;;6.14;100.00
8627;BME280;4351;51.422;6.794;2023-02-01T01:11:38;99833.69;;;6.00;100.00
8627;BME280;4351;51.422;6.794;2023-02-01T01:14:10;99821.44;;;6.28;100.00
8627;BME280;4351;51.422;6.794;2023-02-01T01:16:38;99813.88;;;6.20;100.00
8627;BME280;4351;51.422;6.794;2023-02-01T01:19:06;99819.28;;;6.19;100.00
8627;BME280;4351;51.422;6.794;2023-02-01T01:21:34;99821.97;;;6.35;100.00
8627;BME280;4351;51.422;6.794;2023-02-01T01:24:03;99831.03;;;6.32;100.00
8627;BME280;4351;51.422;6.794;2023-02-01T01:26:31;99829.06;;;6.20;100.00
8627;BME280;4351;51.422;6.794;2023-02-01T01:28:59;99828.72;;;6.10;100.00
8627;BME280;4351;51.422;6.794;2023-02-01T01:31:30;99831.78;;;6.02;100.00
8627;BME280;4351;51.422;6.794;2023-02-01T01:33:59;99823.28;;;6.12;100.00
8627;BME280;4351;51.422;6.794;2023-02-01T01:36:29;99845.44;;;5.97;100.00
8627;BME280;4351;51.422;6.794;2023-02-01T01:39:00;99838.56;;;6.09;100.00
8627;BME280;4351;51.422;6.794;2023-02-01T01:41:39;99850.84;;;6.14;100.00
8627;BME280;4351;51.422;6.794;2023-02-01T01:47:25;99856.19;;;6.14;100.00
8627;BME280;4351;51.422;6.794;2023-02-01T01:50:11;99852.19;;;6.21;100.00
8627;BME280;4351;51.422;6.794;2023-02-01T01:52:51;99845.97;;;6.37;100.00
8627;BME280;4351;51.422;6.794;2023-02-01T01:55:24;99863.53;;;6.26;100.00
8627;BME280;4351;51.422;6.794;2023-02-01T01:57:59;99865.53;;;6.23;100.00
8627;BME280;4351;51.422;6.794;2023-02-01T02:00:31;99882.97;;;6.14;100.00
8627;BME280;4351;51.422;6.794;2023-02-01T02:03:17;99877.53;;;6.31;100.00
8627;BME280;4351;51.422;6.794;2023-02-01T02:05:52;99905.53;;;6.09;100.00
8627;BME280;4351;51.422;6.794;2023-02-01T02:08:23;99905.47;;;6.27;100.00
8627;BME280;4351;51.422;6.794;2023-02-01T02:10:52;99932.84;;;5.98;100.00
8627;BME280;4351;51.422;6.794;2023-02-01T02:13:32;99932.91;;;5.97;100.00
8627;BME280;4351;51.422;6.794;2023-02-01T02:16:14;99941.81;;;5.81;100.00
8627;BME280;4351;51.422;6.794;2023-02-01T02:18:57;99957.19;;;5.94;100.00
8627;BME280;4351;51.422;6.794;2023-02-01T02:21:42;99969.16;;;5.86;100.00
8627;BME280;4351;51.422;6.794;2023-02-01T02:24:34;99991.69;;;5.82;100.00
8627;BME280;4351;51.422;6.794;2023-02-01T02:27:23;100003.59;;;5.77;100.00
8627;BME280;4351;51.422;6.794;2023-02-01T02:36:31;100031.84;;;5.82;100.00
8627;BME280;4351;51.422;6.794;2023-02-01T02:39:07;100034.44;;;5.84;100.00
8627;BME280;4351;51.422;6.794;2023-02-01T02:41:48;100035.00;;;6.08;100.00
8627;BME280;4351;51.422;6.794;2023-02-01T02:44:45;100070.59;;;5.93;100.00
8627;BME280;4351;51.422;6.794;2023-02-01T02:47:36;100091.03;;;5.58;100.00
8627;BME280;4351;51.422;6.794;2023-02-01T02:50:15;100093.81;;;5.57;100.00
8627;BME280;4351;51.422;6.794;2023-02-01T02:53:07;100094.13;;;5.50;100.00
8627;BME280;4351;51.422;6.794;2023-02-01T02:55:56;100108.50;;;5.48;100.00
8627;BME280;4351;51.422;6.794;2023-02-01T02:58:42;100108.34;;;5.51;100.00
8627;BME280;4351;51.422;6.794;2023-02-01T03:01:29;100117.81;;;5.58;100.00
8627;BME280;4351;51.422;6.794;2023-02-01T03:04:15;100121.91;;;5.66;100.00
8627;BME280;4351;51.422;6.794;2023-02-01T03:06:47;100119.13;;;5.49;100.00
8627;BME280;4351;51.422;6.794;2023-02-01T03:09:21;100109.31;;;5.68;100.00
8627;BME280;4351;51.422;6.794;2023-02-01T03:11:54;100114.44;;;5.55;100.00
8627;BME280;4351;51.422;6.794;2023-02-01T03:14:41;100128.94;;;5.49;100.00
8627;BME280;4351;51.422;6.794;2023-02-01T03:17:14;100112.75;;;5.52;100.00
8627;BME280;4351;51.422;6.794;2023-02-01T03:19:46;100106.41;;;5.55;100.00
8627;BME280;4351;51.422;6.794;2023-02-01T03:22:18;100110.16;;;5.50;100.00
8627;BME280;4351;51.422;6.794;2023-02-01T03:24:52;100103.78;;;5.53;100.00
8627;BME280;4351;51.422;6.794;2023-02-01T03:27:24;100079.72;;;5.71;100.00
8627;BME280;4351;51.422;6.794;2023-02-01T03:29:59;100084.84;;;5.75;100.00
8627;BME280;4351;51.422;6.794;2023-02-01T03:32:29;100087.59;;;5.56;100.00
8627;BME280;4351;51.422;6.794;2023-02-01T03:35:18;100072.78;;;5.67;100.00
8627;BME280;4351;51.422;6.794;2023-02-01T03:37:49;100084.25;;;5.51;100.00
8627;BME280;4351;51.422;6.794;2023-02-01T03:40:19;100067.19;;;5.54;100.00
8627;BME280;4351;51.422;6.794;2023-02-01T03:42:53;100063.41;;;5.58;100.00
8627;BME280;4351;51.422;6.794;2023-02-01T03:45:26;100060.72;;;5.58;100.00
8627;BME280;4351;51.422;6.794;2023-02-01T03:47:58;100065.53;;;5.69;100.00
8627;BME280;4351;51.422;6.794;2023-02-01T03:50:30;100063.19;;;5.62;100.00
8627;BME280;4351;51.422;6.794;2023-02-01T03:53:03;100058.31;;;5.71;100.00
8627;BME280;4351;51.422;6.794;2023-02-01T03:55:36;100039.75;;;5.68;100.00
8627;BME280;4351;51.422;6.794;2023-02-01T03:58:07;100047.53;;;5.55;100.00
8627;BME280;4351;51.422;6.794;2023-02-01T04:00:37;100037.75;;;5.71;100.00
8627;BME280;4351;51.422;6.794;2023-02-01T04:03:06;100044.88;;;5.72;100.00
8627;BME280;4351;51.422;6.794;2023-02-01T04:05:34;100025.16;;;5.91;100.00
8627;BME280;4351;51.422;6.794;2023-02-01T04:08:06;100045.00;;;5.69;100.00
8627;BME280;4351;51.422;6.794;2023-02-01T04:10:35;100049.41;;;5.52;100.00
8627;BME280;4351;51.422;6.794;2023-02-01T04:13:03;100032.31;;;5.55;100.00
8627;BME280;4351;51.422;6.794;2023-02-01T04:15:31;100040.84;;;5.63;100.00
8627;BME280;4351;51.422;6.794;2023-02-01T04:18:01;100037.28;;;5.63;100.00
8627;BME280;4351;51.422;6.794;2023-02-01T04:20:29;100038.00;;;5.67;100.00
8627;BME280;4351;51.422;6.794;2023-02-01T04:22:57;100054.25;;;5.44;100.00
8627;BME280;4351;51.422;6.794;2023-02-01T04:25:25;100041.00;;;5.60;100.00
8627;BME280;4351;51.422;6.794;2023-02-01T04:27:55;100052.00;;;5.54;100.00
8627;BME280;4351;51.422;6.794;2023-02-01T04:30:23;100061.38;;;5.45;100.00
8627;BME280;4351;51.422;6.794;2023-02-01T04:32:51;100039.97;;;5.63;100.00
8627;BME280;4351;51.422;6.794;2023-02-01T04:35:19;100043.56;;;5.62;100.00
8627;BME280;4351;51.422;6.794;2023-02-01T04:37:48;100037.06;;;5.68;100.00
8627;BME280;4351;51.422;6.794;2023-02-01T04:40:16;100049.50;;;5.69;100.00
8627;BME280;4351;51.422;6.794;2023-02-01T04:42:44;100050.13;;;5.56;100.00
8627;BME280;4351;51.422;6.794;2023-02-01T04:45:15;100050.69;;;5.63;100.00
8627;BME280;4351;51.422;6.794;2023-02-01T04:47:46;100042.41;;;5.68;100.00
8627;BME280;4351;51.422;6.794;2023-02-01T04:50:16;100025.88;;;5.77;100.00
8627;BME280;4351;51.422;6.794;2023-02-01T04:52:43;100045.56;;;5.76;100.00
8627;BME280;4351;51.422;6.794;2023-02-01T04:55:13;100059.56;;;5.63;100.00
8627;BME280;4351;51.422;6.794;2023-02-01T04:57:41;100051.59;;;5.62;100.00
8627;BME280;4351;51.422;6.794;2023-02-01T05:00:10;100039.88;;;5.64;100.00
8627;BME280;4351;51.422;6.794;2023-02-01T05:02:40;100056.59;;;5.70;100.00
8627;BME280;4351;51.422;6.794;2023-02-01T05:05:08;100052.94;;;5.71;100.00
8627;BME280;4351;51.422;6.794;2023-02-01T05:07:36;100064.28;;;5.58;100.00
8627;BME280;4351;51.422;6.794;2023-02-01T05:10:05;100074.75;;;5.45;100.00
8627;BME280;4351;51.422;6.794;2023-02-01T05:12:33;100057.97;;;5.77;100.00
8627;BME280;4351;51.422;6.794;2023-02-01T05:15:21;100067.84;;;5.77;100.00
8627;BME280;4351;51.422;6.794;2023-02-01T05:17:50;100060.06;;;5.72;100.00
8627;BME280;4351;51.422;6.794;2023-02-01T05:20:18;100066.19;;;5.56;100.00
8627;BME280;4351;51.422;6.794;2023-02-01T05:22:47;100066.34;;;5.71;100.00
8627;BME280;4351;51.422;6.794;2023-02-01T05:25:15;100083.09;;;5.57;100.00
8627;BME280;4351;51.422;6.794;2023-02-01T05:27:43;100081.44;;;5.54;100.00
8627;BME280;4351;51.422;6.794;2023-02-01T05:30:11;100066.66;;;5.64;100.00
8627;BME280;4351;51.422;6.794;2023-02-01T05:32:39;100076.25;;;5.69;100.00
8627;BME280;4351;51.422;6.794;2023-02-01T05:35:09;100082.53;;;5.50;100.00
8627;BME280;4351;51.422;6.794;2023-02-01T05:37:37;100072.44;;;5.55;100.00
8627;BME280;4351;51.422;6.794;2023-02-01T05:40:06;100090.88;;;5.44;100.00
8627;BME280;4351;51.422;6.794;2023-02-01T05:42:34;100087.25;;;5.45;100.00
8627;BME280;4351;51.422;6.794;2023-02-01T05:45:03;100084.22;;;5.33;100.00
8627;BME280;4351;51.422;6.794;2023-02-01T05:47:31;100085.00;;;5.55;100.00
8627;BME280;4351;51.422;6.794;2023-02-01T05:49:59;100087.72;;;5.53;100.00
8627;BME280;4351;51.422;6.794;2023-02-01T05:52:35;100061.69;;;5.57;100.00
8627;BME280;4351;51.422;6.794;2023-02-01T05:55:13;100068.84;;;5.56;100.00
8627;BME280;4351;51.422;6.794;2023-02-01T05:57:52;100067.38;;;5.50;100.00
8627;BME280;4351;51.422;6.794;2023-02-01T06:00:30;100072.16;;;5.61;100.00
8627;BME280;4351;51.422;6.794;2023-02-01T06:03:15;100080.19;;;5.44;100.00
8627;BME280;4351;51.422;6.794;2023-02-01T06:05:56;100075.63;;;5.46;100.00
8627;BME280;4351;51.422;6.794;2023-02-01T06:08:45;100075.31;;;5.52;100.00
8627;BME280;4351;51.422;6.794;2023-02-01T06:11:21;100084.44;;;5.48;100.00
8627;BME280;4351;51.422;6.794;2023-02-01T06:14:00;100088.59;;;5.54;100.00
8627;BME280;4351;51.422;6.794;2023-02-01T06:16:32;100087.31;;;5.43;100.00
8627;BME280;4351;51.422;6.794;2023-02-01T06:19:03;100081.22;;;5.59;100.00
8627;BME280;4351;51.422;6.794;2023-02-01T06:21:41;100095.38;;;5.61;100.00
8627;BME280;4351;51.422;6.794;2023-02-01T06:24:23;100101.06;;;5.72;100.00
8627;BME280;4351;51.422;6.794;2023-02-01T06:27:00;100103.50;;;5.59;100.00
8627;BME280;4351;51.422;6.794;2023-02-01T06:29:43;100114.34;;;5.56;100.00
8627;BME280;4351;51.422;6.794;2023-02-01T06:32:24;100100.34;;;5.69;100.00
8627;BME280;4351;51.422;6.794;2023-02-01T06:34:57;100109.88;;;5.57;100.00
8627;BME280;4351;51.422;6.794;2023-02-01T06:37:35;100117.84;;;5.76;100.00
8627;BME280;4351;51.422;6.794;2023-02-01T06:40:07;100116.41;;;5.69;100.00
8627;BME280;4351;51.422;6.794;2023-02-01T06:42:38;100117.19;;;5.71;100.00
8627;BME280;4351;51.422;6.794;2023-02-01T06:45:08;100127.66;;;5.75;100.00
8627;BME280;4351;51.422;6.794;2023-02-01T06:47:41;100113.59;;;5.90;100.00
8627;BME280;4351;51.422;6.794;2023-02-01T06:50:13;100128.09;;;5.85;100.00
8627;BME280;4351;51.422;6.794;2023-02-01T06:52:41;100133.97;;;5.74;100.00
8627;BME280;4351;51.422;6.794;2023-02-01T06:55:10;100145.31;;;5.80;100.00
8627;BME280;4351;51.422;6.794;2023-02-01T06:57:39;100122.00;;;6.00;100.00
8627;BME280;4351;51.422;6.794;2023-02-01T07:00:09;100144.16;;;5.85;100.00
8627;BME280;4351;51.422;6.794;2023-02-01T07:02:37;100150.66;;;5.97;100.00
8627;BME280;4351;51.422;6.794;2023-02-01T07:05:06;100156.81;;;6.00;100.00
8627;BME280;4351;51.422;6.794;2023-02-01T07:07:34;100163.34;;;5.94;100.00
8627;BME280;4351;51.422;6.794;2023-02-01T07:10:02;100176.56;;;5.97;100.00
8627;BME280;4351;51.422;6.794;2023-02-01T07:12:32;100183.13;;;5.91;100.00
8627;BME280;4351;51.422;6.794;2023-02-01T07:15:00;100179.47;;;6.12;100.00
8627;BME280;4351;51.422;6.794;2023-02-01T07:17:29;100190.88;;;6.15;100.00
8627;BME280;4351;51.422;6.794;2023-02-01T07:19:57;100196.09;;;5.99;100.00
8627;BME280;4351;51.422;6.794;2023-02-01T07:22:28;100185.13;;;6.05;100.00
8627;BME280;4351;51.422;6.794;2023-02-01T07:24:56;100190.19;;;6.12;100.00
8627;BME280;4351;51.422;6.794;2023-02-01T07:27:24;100191.28;;;6.07;100.00
8627;BME280;4351;51.422;6.794;2023-02-01T07:29:53;100184.66;;;6.15;100.00
8627;BME280;4351;51.422;6.794;2023-02-01T07:32:22;100193.16;;;6.05;100.00
8627;BME280;4351;51.422;6.794;2023-02-01T07:34:50;100205.31;;;5.93;100.00
8627;BME280;4351;51.422;6.794;2023-02-01T07:37:18;100190.63;;;6.02;100.00
8627;BME280;4351;51.422;6.794;2023-02-01T07:39:46;100183.50;;;6.20;100.00
8627;BME280;4351;51.422;6.794;2023-02-01T07:42:14;100199.63;;;6.19;100.00
8627;BME280;4351;51.422;6.794;2023-02-01T07:44:42;100196.09;;;6.18;100.00
8627;BME280;4351;51.422;6.794;2023-02-01T07:47:12;100207.97;;;6.13;100.00
8627;BME280;4351;51.422;6.794;2023-02-01T07:49:40;100211.75;;;6.08;100.00
8627;BME280;4351;51.422;6.794;2023-02-01T07:52:08;100192.47;;;6.19;100.00
8627;BME280;4351;51.422;6.794;2023-02-01T07:54:37;100213.31;;;6.13;100.00
8627;BME280;4351;51.422;6.794;2023-02-01T07:57:05;100213.00;;;6.19;100.00
8627;BME280;4351;51.422;6.794;2023-02-01T07:59:35;100210.50;;;6.16;100.00
8627;BME280;4351;51.422;6.794;2023-02-01T08:02:24;100213.53;;;6.27;100.00
8627;BME280;4351;51.422;6.794;2023-02-01T08:04:51;100197.41;;;6.45;100.00
8627;BME280;4351;51.422;6.794;2023-02-01T08:07:19;100229.50;;;6.29;100.00
8627;BME280;4351;51.422;6.794;2023-02-01T08:09:48;100225.00;;;6.12;100.00
8627;BME280;4351;51.422;6.794;2023-02-01T08:12:16;100218.69;;;6.13;100.00
8627;BME280;4351;51.422;6.794;2023-02-01T08:14:44;100217.81;;;6.30;100.00
8627;BME280;4351;51.422;6.794;2023-02-01T08:17:12;100216.91;;;6.31;100.00
8627;BME280;4351;51.422;6.794;2023-02-01T08:19:42;100222.88;;;6.18;100.00
8627;BME280;4351;51.422;6.794;2023-02-01T08:22:10;100224.38;;;6.24;100.00
8627;BME280;4351;51.422;6.794;2023-02-01T08:24:38;100226.91;;;6.27;100.00
8627;BME280;4351;51.422;6.794;2023-02-01T08:27:08;100234.31;;;6.22;100.00
8627;BME280;4351;51.422;6.794;2023-02-01T08:29:36;100225.25;;;6.25;100.00
8627;BME280;4351;51.422;6.794;2023-02-01T08:32:04;100212.97;;;6.38;100.00
8627;BME280;4351;51.422;6.794;2023-02-01T08:34:32;100225.50;;;6.38;100.00
8627;BME280;4351;51.422;6.794;2023-02-01T08:37:02;100237.31;;;6.34;100.00
8627;BME280;4351;51.422;6.794;2023-02-01T08:39:30;100245.97;;;6.39;100.00
8627;BME280;4351;51.422;6.794;2023-02-01T08:41:58;100246.13;;;6.36;100.00
8627;BME280;4351;51.422;6.794;2023-02-01T08:44:43;100251.88;;;6.28;100.00
8627;BME280;4351;51.422;6.794;2023-02-01T08:47:11;100242.69;;;6.34;100.00
8627;BME280;4351;51.422;6.794;2023-02-01T08:49:39;100248.41;;;6.43;100.00
8627;BME280;4351;51.422;6.794;2023-02-01T08:52:09;100262.44;;;6.31;100.00
8627;BME280;4351;51.422;6.794;2023-02-01T08:54:42;100258.28;;;6.25;100.00
8627;BME280;4351;51.422;6.794;2023-02-01T08:57:10;100260.06;;;6.25;100.00
8627;BME280;4351;51.422;6.794;2023-02-01T08:59:39;100248.19;;;6.48;100.00
8627;BME280;4351;51.422;6.794;2023-02-01T09:02:08;100255.44;;;6.64;100.00
8627;BME280;4351;51.422;6.794;2023-02-01T09:04:40;100274.28;;;6.44;100.00
8627;BME280;4351;51.422;6.794;2023-02-01T09:07:10;100254.56;;;6.63;100.00
8627;BME280;4351;51.422;6.794;2023-02-01T09:09:39;100260.00;;;6.44;100.00
8627;BME280;4351;51.422;6.794;2023-02-01T09:12:08;100256.22;;;6.48;100.00
8627;BME280;4351;51.422;6.794;2023-02-01T09:14:38;100261.91;;;6.42;100.00
8627;BME280;4351;51.422;6.794;2023-02-01T09:17:07;100256.69;;;6.39;100.00
8627;BME280;4351;51.422;6.794;2023-02-01T09:19:35;100256.69;;;6.39;100.00
8627;BME280;4351;51.422;6.794;2023-02-01T09:22:07;100258.25;;;6.43;100.00
8627;BME280;4351;51.422;6.794;2023-02-01T09:24:37;100262.28;;;6.34;100.00
8627;BME280;4351;51.422;6.794;2023-02-01T09:27:05;100250.31;;;6.59;100.00
8627;BME280;4351;51.422;6.794;2023-02-01T09:29:33;100253.31;;;6.53;100.00
8627;BME280;4351;51.422;6.794;2023-02-01T09:32:01;100272.06;;;6.35;100.00
8627;BME280;4351;51.422;6.794;2023-02-01T09:34:30;100260.00;;;6.44;100.00
8627;BME280;4351;51.422;6.794;2023-02-01T09:36:58;100253.69;;;6.45;100.00
8627;BME280;4351;51.422;6.794;2023-02-01T09:39:30;100259.69;;;6.50;100.00
8627;BME280;4351;51.422;6.794;2023-02-01T09:42:16;100256.78;;;6.55;100.00
8627;BME280;4351;51.422;6.794;2023-02-01T09:45:13;100257.47;;;6.76;100.00
8627;BME280;4351;51.422;6.794;2023-02-01T09:47:54;100246.84;;;6.75;100.00
8627;BME280;4351;51.422;6.794;2023-02-01T09:50:32;100275.78;;;6.50;100.00
8627;BME280;4351;51.422;6.794;2023-02-01T09:53:05;100266.72;;;6.71;100.00
8627;BME280;4351;51.422;6.794;2023-02-01T09:55:39;100265.19;;;6.83;100.00
8627;BME280;4351;51.422;6.794;2023-02-01T09:58:17;100277.53;;;6.69;100.00
8627;BME280;4351;51.422;6.794;2023-02-01T10:00:52;100273.31;;;6.81;100.00
8627;BME280;4351;51.422;6.794;2023-02-01T10:03:28;100291.06;;;6.66;100.00
8627;BME280;4351;51.422;6.794;2023-02-01T10:06:20;100297.06;;;6.53;100.00
8627;BME280;4351;51.422;6.794;2023-02-01T10:11:54;100296.44;;;6.84;100.00
8627;BME280;4351;51.422;6.794;2023-02-01T10:14:59;100286.94;;;6.94;100.00
8627;BME280;4351;51.422;6.794;2023-02-01T10:17:48;100282.50;;;7.11;100.00
8627;BME280;4351;51.422;6.794;2023-02-01T10:20:29;100290.31;;;6.98;100.00
8627;BME280;4351;51.422;6.794;2023-02-01T10:23:05;100275.91;;;6.83;100.00
8627;BME280;4351;51.422;6.794;2023-02-01T10:26:04;100292.22;;;6.96;100.00
8627;BME280;4351;51.422;6.794;2023-02-01T10:28:37;100295.78;;;6.96;100.00
8627;BME280;4351;51.422;6.794;2023-02-01T10:31:09;100301.53;;;7.06;100.00
8627;BME280;4351;51.422;6.794;2023-02-01T10:33:44;100311.97;;;6.95;100.00
8627;BME280;4351;51.422;6.794;2023-02-01T10:36:22;100300.81;;;7.03;100.00
8627;BME280;4351;51.422;6.794;2023-02-01T10:38:58;100327.50;;;6.88;100.00
8627;BME280;4351;51.422;6.794;2023-02-01T10:41:36;100323.69;;;7.10;100.00
8627;BME280;4351;51.422;6.794;2023-02-01T10:44:14;100351.47;;;6.91;100.00
8627;BME280;4351;51.422;6.794;2023-02-01T10:46:44;100342.00;;;6.84;100.00
8627;BME280;4351;51.422;6.794;2023-02-01T10:49:18;100336.69;;;7.00;100.00
8627;BME280;4351;51.422;6.794;2023-02-01T10:51:52;100346.59;;;6.99;100.00
8627;BME280;4351;51.422;6.794;2023-02-01T10:54:31;100331.56;;;7.13;100.00
8627;BME280;4351;51.422;6.794;2023-02-01T10:57:05;100347.84;;;7.10;100.00
8627;BME280;4351;51.422;6.794;2023-02-01T10:59:38;100330.06;;;7.25;100.00
8627;BME280;4351;51.422;6.794;2023-02-01T11:02:22;100337.97;;;7.10;100.00
8627;BME280;4351;51.422;6.794;2023-02-01T11:05:01;100342.22;;;7.15;100.00
8627;BME280;4351;51.422;6.794;2023-02-01T11:07:30;100345.84;;;7.13;100.00
8627;BME280;4351;51.422;6.794;2023-02-01T11:09:58;100354.44;;;7.20;100.00
8627;BME280;4351;51.422;6.794;2023-02-01T11:12:29;100344.38;;;7.42;100.00
8627;BME280;4351;51.422;6.794;2023-02-01T11:15:03;100349.16;;;7.19;100.00
8627;BME280;4351;51.422;6.794;2023-02-01T11:17:35;100354.19;;;7.43;100.00
8627;BME280;4351;51.422;6.794;2023-02-01T11:20:16;100366.13;;;7.37;100.00
8627;BME280;4351;51.422;6.794;2023-02-01T11:22:48;100378.91;;;7.32;100.00
8627;BME280;4351;51.422;6.794;2023-02-01T11:25:17;100368.09;;;7.33;100.00
8627;BME280;4351;51.422;6.794;2023-02-01T11:27:46;100369.25;;;7.45;100.00
8627;BME280;4351;51.422;6.794;2023-02-01T11:30:29;100366.69;;;7.26;100.00
8627;BME280;4351;51.422;6.794;2023-02-01T11:33:03;100357.91;;;7.22;100.00
8627;BME280;4351;51.422;6.794;2023-02-01T11:35:33;100352.41;;;7.26;100.00
8627;BME280;4351;51.422;6.794;2023-02-01T11:38:13;100366.41;;;7.31;100.00
8627;BME280;4351;51.422;6.794;2023-02-01T11:40:45;100360.03;;;7.33;100.00
8627;BME280;4351;51.422;6.794;2023-02-01T11:43:17;100366.16;;;7.19;100.00
8627;BME280;4351;51.422;6.794;2023-02-01T11:45:54;100346.16;;;7.25;100.00
8627;BME280;4351;51.422;6.794;2023-02-01T11:48:27;100333.09;;;7.35;100.00
8627;BME280;4351;51.422;6.794;2023-02-01T11:51:12;100327.94;;;7.14;100.00
8627;BME280;4351;51.422;6.794;2023-02-01T11:54:05;100312.06;;;7.27;100.00
8627;BME280;4351;51.422;6.794;2023-02-01T11:56:36;100285.56;;;7.21;100.00
8627;BME280;4351;51.422;6.794;2023-02-01T11:59:14;100260.53;;;7.20;100.00
8627;BME280;4351;51.422;6.794;2023-02-01T12:01:56;100242.63;;;7.21;100.00
8627;BME280;4351;51.422;6.794;2023-02-01T12:05:02;100229.56;;;7.31;100.00
8627;BME280;4351;51.422;6.794;2023-02-01T12:07:49;100238.44;;;6.99;100.00
8627;BME280;4351;51.422;6.794;2023-02-01T12:10:28;100210.00;;;7.29;100.00
8627;BME280;4351;51.422;6.794;2023-02-01T12:13:11;100218.44;;;7.05;100.00
8627;BME280;4351;51.422;6.794;2023-02-01T12:15:52;100212.69;;;7.12;100.00
8627;BME280;4351;51.422;6.794;2023-02-01T12:21:41;100215.28;;;7.14;100.00
8627;BME280;4351;51.422;6.794;2023-02-01T12:27:27;100227.75;;;7.31;100.00
8627;BME280;4351;51.422;6.794;2023-02-01T12:30:12;100233.81;;;7.35;100.00
8627;BME280;4351;51.422;6.794;2023-02-01T12:32:54;100242.00;;;7.50;100.00
8627;BME280;4351;51.422;6.794;2023-02-01T12:35:41;100264.44;;;7.31;100.00
8627;BME280;4351;51.422;6.794;2023-02-01T12:38:33;100277.28;;;7.42;100.00
8627;BME280;4351;51.422;6.794;2023-02-01T12:41:15;100306.75;;;7.43;100.00
8627;BME280;4351;51.422;6.794;2023-02-01T12:43:49;100316.19;;;7.51;100.00
8627;BME280;4351;51.422;6.794;2023-02-01T12:46:24;100319.28;;;7.43;100.00
8627;BME280;4351;51.422;6.794;2023-02-01T12:48:56;100321.19;;;7.57;100.00
8627;BME280;4351;51.422;6.794;2023-02-01T12:51:28;100343.09;;;7.49;100.00
8627;BME280;4351;51.422;6.794;2023-02-01T12:54:02;100360.00;;;7.51;100.00
8627;BME280;4351;51.422;6.794;2023-02-01T12:56:37;100351.06;;;7.51;100.00
8627;BME280;4351;51.422;6.794;2023-02-01T12:59:15;100362.53;;;7.54;100.00
8627;BME280;4351;51.422;6.794;2023-02-01T13:01:48;100365.13;;;7.56;100.00
8627;BME280;4351;51.422;6.794;2023-02-01T13:04:22;100359.84;;;7.70;100.00
8627;BME280;4351;51.422;6.794;2023-02-01T13:06:59;100383.34;;;7.67;100.00
8627;BME280;4351;51.422;6.794;2023-02-01T13:09:34;100389.72;;;7.64;100.00
8627;BME280;4351;51.422;6.794;2023-02-01T13:12:12;100380.22;;;7.75;100.00
8627;BME280;4351;51.422;6.794;2023-02-01T13:14:44;100381.53;;;7.67;100.00
8627;BME280;4351;51.422;6.794;2023-02-01T13:17:16;100395.69;;;7.53;100.00
8627;BME280;4351;51.422;6.794;2023-02-01T13:19:50;100377.75;;;7.54;100.00
8627;BME280;4351;51.422;6.794;2023-02-01T13:22:23;100357.41;;;7.50;100.00
8627;BME280;4351;51.422;6.794;2023-02-01T13:24:57;100362.78;;;7.50;100.00
8627;BME280;4351;51.422;6.794;2023-02-01T13:27:27;100353.03;;;7.65;100.00
8627;BME280;4351;51.422;6.794;2023-02-01T13:29:59;100354.81;;;7.64;100.00
8627;BME280;4351;51.422;6.794;2023-02-01T13:32:49;100365.47;;;7.50;100.00
8627;BME280;4351;51.422;6.794;2023-02-01T13:36:09;100359.91;;;7.53;100.00
8627;BME280;4351;51.422;6.794;2023-02-01T13:41:59;100361.66;;;7.54;100.00
8627;BME280;4351;51.422;6.794;2023-02-01T13:44:31;100367.47;;;7.62;100.00
8627;BME280;4351;51.422;6.794;2023-02-01T13:47:03;100368.44;;;7.61;100.00
8627;BME280;4351;51.422;6.794;2023-02-01T13:49:39;100356.50;;;7.67;100.00
8627;BME280;4351;51.422;6.794;2023-02-01T13:52:25;100357.91;;;7.74;100.00
8627;BME280;4351;51.422;6.794;2023-02-01T13:57:48;100362.06;;;7.80;100.00
8627;BME280;4351;51.422;6.794;2023-02-01T14:00:25;100379.91;;;7.81;100.00
8627;BME280;4351;51.422;6.794;2023-02-01T14:03:11;100379.38;;;7.90;100.00
8627;BME280;4351;51.422;6.794;2023-02-01T14:06:01;100381.03;;;7.93;100.00
8627;BME280;4351;51.422;6.794;2023-02-01T14:08:39;100399.41;;;7.85;100.00
8627;BME280;4351;51.422;6.794;2023-02-01T14:11:32;100406.97;;;7.94;100.00
8627;BME280;4351;51.422;6.794;2023-02-01T14:17:33;100405.66;;;8.01;100.00
8627;BME280;4351;51.422;6.794;2023-02-01T14:23:15;100422.56;;;8.03;100.00